Martinsville, VA

9:10 AM EDT on August 29, 2014 (GMT -0400)
Reidsville | Change Station
CLOSE
Current Station
Airport
Location: Reidsville,
Elevation: 692 ft
Nearby Weather Stations

Elev 692 ft 36.44 °N, 79.85 °W | Updated 15 minutes ago

Overcast
Overcast
69 °F
Feels Like 69 °F
N
4
Wind Variable Wind from NNE

Today
High -- | Low -- °F
--% Chance of Precip.
Yesterday
High -- | Low -- °F
Precip. -- in
6:48 AM 7:51 PM
Waxing Crescent, 14% visible
Pressure 30.17 in
Visibility 10.0 miles
Clouds Overcast 3300 ft
Dew Point 61 °F
Humidity 75%
Rainfall 0.00 in
Snow Depth Not available.
UV 1 out of 12
Pollen 9.00 out of 12
Air Quality Not available.
Flu Activity Not available.
METAR KSIF 291255Z AUTO 03003KT 10SM OVC033 21/16 A3017 RMK AO2 T02070161

More Conditions Fewer Conditions

Pressure 30.17 in
Visibility 10.0 miles
Clouds Overcast 3300 ft
Dew Point 61 °F
Humidity 75%
Rainfall 0.00 in
Snow Depth Not available.
UV 1 out of 12
Pollen 9.00 out of 12
Air Quality Not available.
Flu Activity Not available.
METAR KSIF 291255Z AUTO 03003KT 10SM OVC033 21/16 A3017 RMK AO2 T02070161

More Conditions Fewer Conditions

10-Day Weather Forecast

Almanac

Astronomy

Aug. 29, 2014 Rise Set
Actual Time 6:48 AM EDT 7:51 PM EDT
Civil Twilight 6:21 AM EDT 8:18 PM EDT
Nautical Twilight 5:49 AM EDT 8:50 PM EDT
Astronomical Twilight 5:17 AM EDT 9:22 PM EDT
Moon 10:29 AM EDT 9:56 PM EDT
Length of Visible Light 13h 56m
Length of Day
13h 03m
Tomorrow will be 2m 14s shorter.
Waxing Crescent, 14% of the Moon is Illuminated
Today
Waxing Crescent
Sep 2
First Quarter
Sep 8
Full
Sep 15
Last Quarter
Sep 24
New

Today's Extremes

State Highs State Lows

Community

WunderPhotos

Upload Photos

1,748,226 photos uploaded!

Nearby

Snow Depth

Station Depth Elevation
No new snow has been reported.

Earthquake Activity

City Distance Mag. Time & Date
No recent earthquake activity has been reported nearby.
Minimum magnitude displayed is 2.5.

Coastal Water Temperatures

Place Temperature
No Stations Reporting

Nearby Weather Stations